sensor_id;sensor_type;location;lat;lon;timestamp;pressure;altitude;pressure_sealevel;temperature;humidity
62524;BME280;53689;56.878;60.672;2022-09-09T00:01:49;97834.91;;;21.52;34.79
62524;BME280;53689;56.878;60.672;2022-09-09T00:04:25;97838.63;;;21.57;34.03
62524;BME280;53689;56.878;60.672;2022-09-09T00:07:00;97836.16;;;21.62;33.62
62524;BME280;53689;56.878;60.672;2022-09-09T00:09:29;97838.66;;;21.51;34.70
62524;BME280;53689;56.878;60.672;2022-09-09T00:12:01;97830.75;;;21.42;34.65
62524;BME280;53689;56.878;60.672;2022-09-09T00:14:36;97835.75;;;21.52;34.33
62524;BME280;53689;56.878;60.672;2022-09-09T00:17:09;97827.03;;;21.37;35.19
62524;BME280;53689;56.878;60.672;2022-09-09T00:19:41;97825.78;;;21.53;34.39
62524;BME280;53689;56.878;60.672;2022-09-09T00:22:16;97828.91;;;21.43;33.96
62524;BME280;53689;56.878;60.672;2022-09-09T00:24:45;97824.16;;;21.45;34.41
62524;BME280;53689;56.878;60.672;2022-09-09T00:27:19;97828.72;;;21.51;34.21
62524;BME280;53689;56.878;60.672;2022-09-09T00:29:53;97830.97;;;21.54;34.64
62524;BME280;53689;56.878;60.672;2022-09-09T00:32:28;97828.47;;;21.53;34.34
62524;BME280;53689;56.878;60.672;2022-09-09T00:35:00;97831.59;;;21.49;34.05
62524;BME280;53689;56.878;60.672;2022-09-09T00:37:29;97829.13;;;21.55;33.52
62524;BME280;53689;56.878;60.672;2022-09-09T00:39:59;97819.78;;;21.51;34.01
62524;BME280;53689;56.878;60.672;2022-09-09T00:42:36;97826.41;;;21.48;34.95
62524;BME280;53689;56.878;60.672;2022-09-09T00:45:22;97828.69;;;21.38;34.62
62524;BME280;53689;56.878;60.672;2022-09-09T00:47:59;97827.66;;;21.25;35.30
62524;BME280;53689;56.878;60.672;2022-09-09T00:50:42;97818.66;;;20.71;34.86
62524;BME280;53689;56.878;60.672;2022-09-09T00:53:21;97825.41;;;21.29;34.47
62524;BME280;53689;56.878;60.672;2022-09-09T00:55:59;97823.53;;;21.36;34.56
62524;BME280;53689;56.878;60.672;2022-09-09T00:58:28;97833.25;;;21.03;34.46
62524;BME280;53689;56.878;60.672;2022-09-09T01:00:59;97823.28;;;20.90;34.46
62524;BME280;53689;56.878;60.672;2022-09-09T01:03:34;97828.28;;;21.27;35.25
62524;BME280;53689;56.878;60.672;2022-09-09T01:06:13;97826.84;;;21.38;34.29
62524;BME280;53689;56.878;60.672;2022-09-09T01:09:14;97832.22;;;21.52;33.99
62524;BME280;53689;56.878;60.672;2022-09-09T01:11:52;97833.47;;;21.56;33.91
62524;BME280;53689;56.878;60.672;2022-09-09T01:14:32;97831.59;;;21.56;33.56
62524;BME280;53689;56.878;60.672;2022-09-09T01:17:08;97829.75;;;21.57;33.87
62524;BME280;53689;56.878;60.672;2022-09-09T01:19:49;97828.69;;;21.58;33.44
62524;BME280;53689;56.878;60.672;2022-09-09T01:22:28;97831.41;;;21.58;33.15
62524;BME280;53689;56.878;60.672;2022-09-09T01:25:21;97828.28;;;21.61;33.34
62524;BME280;53689;56.878;60.672;2022-09-09T01:27:59;97825.16;;;21.57;33.54
62524;BME280;53689;56.878;60.672;2022-09-09T01:30:29;97830.56;;;21.64;33.25
62524;BME280;53689;56.878;60.672;2022-09-09T01:32:58;97831.41;;;21.58;33.95
62524;BME280;53689;56.878;60.672;2022-09-09T01:35:34;97828.50;;;21.59;33.34
62524;BME280;53689;56.878;60.672;2022-09-09T01:38:03;97827.22;;;21.62;33.50
62524;BME280;53689;56.878;60.672;2022-09-09T01:40:31;97830.78;;;21.62;33.54
62524;BME280;53689;56.878;60.672;2022-09-09T01:43:01;97834.50;;;21.61;33.60
62524;BME280;53689;56.878;60.672;2022-09-09T01:45:28;97835.31;;;21.62;33.54
62524;BME280;53689;56.878;60.672;2022-09-09T01:47:57;97837.41;;;21.60;33.30
62524;BME280;53689;56.878;60.672;2022-09-09T01:50:38;97837.63;;;21.58;33.31
62524;BME280;53689;56.878;60.672;2022-09-09T01:53:07;97837.63;;;21.65;33.13
62524;BME280;53689;56.878;60.672;2022-09-09T01:55:39;97835.97;;;21.64;33.40
62524;BME280;53689;56.878;60.672;2022-09-09T01:58:20;97835.13;;;21.63;32.96
62524;BME280;53689;56.878;60.672;2022-09-09T02:00:58;97825.78;;;21.66;32.98
62524;BME280;53689;56.878;60.672;2022-09-09T02:03:31;97841.97;;;21.73;32.89
62524;BME280;53689;56.878;60.672;2022-09-09T02:06:14;97844.06;;;21.71;33.09
62524;BME280;53689;56.878;60.672;2022-09-09T02:08:52;97849.03;;;21.74;33.10
62524;BME280;53689;56.878;60.672;2022-09-09T02:11:23;97842.41;;;21.70;32.88
62524;BME280;53689;56.878;60.672;2022-09-09T02:14:02;97850.06;;;21.73;32.59
62524;BME280;53689;56.878;60.672;2022-09-09T02:16:37;97849.41;;;21.57;32.84
62524;BME280;53689;56.878;60.672;2022-09-09T02:19:10;97853.56;;;21.40;33.86
62524;BME280;53689;56.878;60.672;2022-09-09T02:21:59;97847.50;;;21.04;34.58
62524;BME280;53689;56.878;60.672;2022-09-09T02:24:29;97850.19;;;21.04;34.21
62524;BME280;53689;56.878;60.672;2022-09-09T02:27:20;97844.81;;;20.97;34.53
62524;BME280;53689;56.878;60.672;2022-09-09T02:29:52;97851.03;;;20.98;34.30
62524;BME280;53689;56.878;60.672;2022-09-09T02:32:34;97857.66;;;21.02;34.20
62524;BME280;53689;56.878;60.672;2022-09-09T02:35:08;97855.63;;;21.24;34.02
62524;BME280;53689;56.878;60.672;2022-09-09T02:37:39;97861.19;;;21.16;34.42
62524;BME280;53689;56.878;60.672;2022-09-09T02:40:09;97851.47;;;21.08;34.25
62524;BME280;53689;56.878;60.672;2022-09-09T02:42:43;97856.44;;;21.04;35.35
62524;BME280;53689;56.878;60.672;2022-09-09T02:45:15;97852.25;;;20.88;35.00
62524;BME280;53689;56.878;60.672;2022-09-09T02:47:50;97857.22;;;20.91;34.74
62524;BME280;53689;56.878;60.672;2022-09-09T02:50:24;97861.56;;;20.99;34.79
62524;BME280;53689;56.878;60.672;2022-09-09T02:53:02;97859.22;;;20.76;35.04
62524;BME280;53689;56.878;60.672;2022-09-09T02:55:38;97855.97;;;20.87;34.14
62524;BME280;53689;56.878;60.672;2022-09-09T02:58:09;97857.13;;;20.71;34.65
62524;BME280;53689;56.878;60.672;2022-09-09T03:00:40;97861.72;;;20.77;34.76
62524;BME280;53689;56.878;60.672;2022-09-09T03:03:08;97857.53;;;20.61;34.49
62524;BME280;53689;56.878;60.672;2022-09-09T03:05:36;97860.84;;;20.70;34.62
62524;BME280;53689;56.878;60.672;2022-09-09T03:08:05;97862.13;;;20.74;34.46
62524;BME280;53689;56.878;60.672;2022-09-09T03:10:33;97860.25;;;20.82;34.24
62524;BME280;53689;56.878;60.672;2022-09-09T03:13:01;97859.44;;;20.74;34.48
62524;BME280;53689;56.878;60.672;2022-09-09T03:15:33;97863.44;;;20.92;34.63
62524;BME280;53689;56.878;60.672;2022-09-09T03:18:02;97858.69;;;20.94;34.71
62524;BME280;53689;56.878;60.672;2022-09-09T03:20:30;97859.50;;;20.95;34.43
62524;BME280;53689;56.878;60.672;2022-09-09T03:22:59;97868.63;;;21.00;34.69
62524;BME280;53689;56.878;60.672;2022-09-09T03:25:27;97869.19;;;20.82;34.80
62524;BME280;53689;56.878;60.672;2022-09-09T03:27:55;97868.81;;;20.92;34.57
62524;BME280;53689;56.878;60.672;2022-09-09T03:30:25;97868.41;;;20.95;34.45
62524;BME280;53689;56.878;60.672;2022-09-09T03:32:55;97869.66;;;20.99;34.97
62524;BME280;53689;56.878;60.672;2022-09-09T03:35:28;97871.72;;;21.04;34.97
62524;BME280;53689;56.878;60.672;2022-09-09T03:37:57;97872.34;;;20.92;35.13
62524;BME280;53689;56.878;60.672;2022-09-09T03:40:25;97867.81;;;21.00;35.49
62524;BME280;53689;56.878;60.672;2022-09-09T03:42:53;97867.38;;;20.89;35.65
62524;BME280;53689;56.878;60.672;2022-09-09T03:45:20;97867.56;;;20.88;36.19
62524;BME280;53689;56.878;60.672;2022-09-09T03:47:48;97875.03;;;20.92;36.38
62524;BME280;53689;56.878;60.672;2022-09-09T03:50:15;97870.84;;;20.83;35.80
62524;BME280;53689;56.878;60.672;2022-09-09T03:52:47;97875.88;;;20.93;35.26
62524;BME280;53689;56.878;60.672;2022-09-09T03:55:19;97877.53;;;21.01;35.41
62524;BME280;53689;56.878;60.672;2022-09-09T03:57:47;97880.88;;;21.16;35.21
62524;BME280;53689;56.878;60.672;2022-09-09T04:02:49;97887.84;;;20.90;35.80
62524;BME280;53689;56.878;60.672;2022-09-09T04:05:17;97886.94;;;20.70;35.41
62524;BME280;53689;56.878;60.672;2022-09-09T04:07:48;97884.44;;;20.68;35.37
62524;BME280;53689;56.878;60.672;2022-09-09T04:10:15;97887.38;;;20.73;35.46
62524;BME280;53689;56.878;60.672;2022-09-09T04:12:43;97883.81;;;20.66;35.37
62524;BME280;53689;56.878;60.672;2022-09-09T04:15:15;97890.31;;;20.85;35.19
62524;BME280;53689;56.878;60.672;2022-09-09T04:17:43;97882.81;;;20.80;34.95
62524;BME280;53689;56.878;60.672;2022-09-09T04:20:10;97887.72;;;20.63;34.93
62524;BME280;53689;56.878;60.672;2022-09-09T04:22:38;97887.84;;;20.90;34.79
62524;BME280;53689;56.878;60.672;2022-09-09T04:25:08;97894.91;;;21.05;34.77
62524;BME280;53689;56.878;60.672;2022-09-09T04:27:36;97898.94;;;20.74;35.49
62524;BME280;53689;56.878;60.672;2022-09-09T04:30:03;97896.09;;;20.82;35.03
62524;BME280;53689;56.878;60.672;2022-09-09T04:32:32;97884.75;;;20.93;34.75
62524;BME280;53689;56.878;60.672;2022-09-09T04:35:00;97890.88;;;20.74;35.41
62524;BME280;53689;56.878;60.672;2022-09-09T04:37:27;97891.00;;;21.01;34.63
62524;BME280;53689;56.878;60.672;2022-09-09T04:39:55;97895.94;;;21.04;34.64
62524;BME280;53689;56.878;60.672;2022-09-09T04:42:24;97894.75;;;20.64;36.26
62524;BME280;53689;56.878;60.672;2022-09-09T04:44:51;97891.88;;;20.66;35.18
62524;BME280;53689;56.878;60.672;2022-09-09T04:47:18;97900.97;;;20.58;35.59
62524;BME280;53689;56.878;60.672;2022-09-09T04:49:46;97898.72;;;20.69;35.42
62524;BME280;53689;56.878;60.672;2022-09-09T04:52:13;97903.50;;;20.73;35.39
62524;BME280;53689;56.878;60.672;2022-09-09T04:54:40;97899.94;;;20.59;35.95
62524;BME280;53689;56.878;60.672;2022-09-09T04:57:10;97899.41;;;20.84;35.79
62524;BME280;53689;56.878;60.672;2022-09-09T04:59:45;97901.50;;;20.89;35.53
62524;BME280;53689;56.878;60.672;2022-09-09T05:02:12;97912.09;;;21.04;35.21
62524;BME280;53689;56.878;60.672;2022-09-09T05:04:40;97910.47;;;21.10;35.28
62524;BME280;53689;56.878;60.672;2022-09-09T05:07:07;97909.88;;;21.21;35.08
62524;BME280;53689;56.878;60.672;2022-09-09T05:09:35;97906.59;;;21.26;34.85
62524;BME280;53689;56.878;60.672;2022-09-09T05:12:04;97911.97;;;21.32;34.56
62524;BME280;53689;56.878;60.672;2022-09-09T05:14:34;97918.78;;;21.28;35.34
62524;BME280;53689;56.878;60.672;2022-09-09T05:17:05;97914.00;;;21.10;35.70
62524;BME280;53689;56.878;60.672;2022-09-09T05:19:35;97910.50;;;21.16;35.35
62524;BME280;53689;56.878;60.672;2022-09-09T05:22:02;97907.41;;;21.26;34.79
62524;BME280;53689;56.878;60.672;2022-09-09T05:24:37;97909.03;;;21.20;35.08
62524;BME280;53689;56.878;60.672;2022-09-09T05:27:05;97917.75;;;21.29;34.79
62524;BME280;53689;56.878;60.672;2022-09-09T05:29:33;97919.81;;;21.34;34.45
62524;BME280;53689;56.878;60.672;2022-09-09T05:32:04;97917.91;;;21.01;35.45
62524;BME280;53689;56.878;60.672;2022-09-09T05:34:32;97921.66;;;21.06;35.59
62524;BME280;53689;56.878;60.672;2022-09-09T05:37:00;97913.75;;;21.05;35.50
62524;BME280;53689;56.878;60.672;2022-09-09T05:39:27;97917.28;;;21.05;35.24
62524;BME280;53689;56.878;60.672;2022-09-09T05:41:56;97911.91;;;21.05;35.14
62524;BME280;53689;56.878;60.672;2022-09-09T05:44:23;97914.22;;;21.15;35.14
62524;BME280;53689;56.878;60.672;2022-09-09T05:46:50;97909.91;;;21.28;34.75
62524;BME280;53689;56.878;60.672;2022-09-09T05:49:20;97917.31;;;21.12;35.16
62524;BME280;53689;56.878;60.672;2022-09-09T05:51:47;97920.19;;;21.04;35.60
62524;BME280;53689;56.878;60.672;2022-09-09T05:54:17;97914.53;;;20.85;35.54
62524;BME280;53689;56.878;60.672;2022-09-09T05:56:48;97906.47;;;20.85;35.48
62524;BME280;53689;56.878;60.672;2022-09-09T05:59:18;97911.47;;;21.02;35.39
62524;BME280;53689;56.878;60.672;2022-09-09T06:01:46;97909.47;;;21.17;35.02
62524;BME280;53689;56.878;60.672;2022-09-09T06:04:24;97905.13;;;21.30;34.68
62524;BME280;53689;56.878;60.672;2022-09-09T06:06:51;97911.94;;;21.19;34.94
62524;BME280;53689;56.878;60.672;2022-09-09T06:09:20;97911.91;;;20.99;35.23
62524;BME280;53689;56.878;60.672;2022-09-09T06:11:49;97901.81;;;20.65;35.96
62524;BME280;53689;56.878;60.672;2022-09-09T06:14:16;97905.66;;;20.85;35.54
62524;BME280;53689;56.878;60.672;2022-09-09T06:16:45;97906.69;;;20.84;35.44
62524;BME280;53689;56.878;60.672;2022-09-09T06:19:20;97916.88;;;21.02;34.91
62524;BME280;53689;56.878;60.672;2022-09-09T06:21:49;97905.91;;;21.10;34.87
62524;BME280;53689;56.878;60.672;2022-09-09T06:24:16;97902.00;;;21.26;34.67
62524;BME280;53689;56.878;60.672;2022-09-09T06:26:44;97900.34;;;21.25;34.52
62524;BME280;53689;56.878;60.672;2022-09-09T06:29:16;97900.78;;;21.29;34.64
62524;BME280;53689;56.878;60.672;2022-09-09T06:31:44;97898.31;;;21.41;34.17
62524;BME280;53689;56.878;60.672;2022-09-09T06:34:19;97895.81;;;20.70;36.27
62524;BME280;53689;56.878;60.672;2022-09-09T06:36:51;97894.13;;;21.18;35.31
62524;BME280;53689;56.878;60.672;2022-09-09T06:39:18;97896.63;;;21.19;34.88
62524;BME280;53689;56.878;60.672;2022-09-09T06:41:46;97899.53;;;21.25;34.95
62524;BME280;53689;56.878;60.672;2022-09-09T06:44:39;97899.97;;;21.42;34.62
62524;BME280;53689;56.878;60.672;2022-09-09T06:47:11;97902.44;;;21.43;34.18
62524;BME280;53689;56.878;60.672;2022-09-09T06:49:40;97905.34;;;21.48;34.21
62524;BME280;53689;56.878;60.672;2022-09-09T06:52:13;97897.50;;;21.54;34.06
62524;BME280;53689;56.878;60.672;2022-09-09T06:54:40;97902.25;;;21.45;34.90
62524;BME280;53689;56.878;60.672;2022-09-09T06:57:08;97894.72;;;21.06;35.72
62524;BME280;53689;56.878;60.672;2022-09-09T06:59:56;97889.50;;;20.85;36.26
62524;BME280;53689;56.878;60.672;2022-09-09T07:02:24;97899.66;;;20.89;36.44
62524;BME280;53689;56.878;60.672;2022-09-09T07:04:52;97906.69;;;20.84;36.69
62524;BME280;53689;56.878;60.672;2022-09-09T07:07:21;97904.25;;;21.02;36.50
62524;BME280;53689;56.878;60.672;2022-09-09T07:09:48;97906.13;;;21.09;36.79
62524;BME280;53689;56.878;60.672;2022-09-09T07:12:16;97911.47;;;21.02;36.55
62524;BME280;53689;56.878;60.672;2022-09-09T07:14:51;97903.16;;;20.90;36.91
62524;BME280;53689;56.878;60.672;2022-09-09T07:17:18;97903.81;;;20.99;36.27
62524;BME280;53689;56.878;60.672;2022-09-09T07:19:45;97897.34;;;20.86;36.27
62524;BME280;53689;56.878;60.672;2022-09-09T07:22:15;97905.75;;;20.70;36.70
62524;BME280;53689;56.878;60.672;2022-09-09T07:24:44;97910.03;;;20.57;37.70
62524;BME280;53689;56.878;60.672;2022-09-09T07:27:13;97916.59;;;20.48;38.74
62524;BME280;53689;56.878;60.672;2022-09-09T07:29:41;97915.06;;;20.67;37.05
62524;BME280;53689;56.878;60.672;2022-09-09T07:32:09;97915.91;;;20.74;37.14
62524;BME280;53689;56.878;60.672;2022-09-09T07:34:37;97914.34;;;20.93;36.44
62524;BME280;53689;56.878;60.672;2022-09-09T07:37:05;97912.34;;;21.09;35.92
62524;BME280;53689;56.878;60.672;2022-09-09T07:39:34;97911.38;;;20.82;36.78
62524;BME280;53689;56.878;60.672;2022-09-09T07:42:03;97902.53;;;20.88;36.11
62524;BME280;53689;56.878;60.672;2022-09-09T07:44:31;97903.22;;;21.03;35.77
62524;BME280;53689;56.878;60.672;2022-09-09T07:47:04;97905.06;;;20.96;36.24
62524;BME280;53689;56.878;60.672;2022-09-09T07:49:39;97898.16;;;20.80;36.62
62524;BME280;53689;56.878;60.672;2022-09-09T07:52:09;97898.50;;;20.70;36.76
62524;BME280;53689;56.878;60.672;2022-09-09T07:54:40;97896.25;;;20.80;36.55
62524;BME280;53689;56.878;60.672;2022-09-09T07:57:08;97897.63;;;21.05;35.78
62524;BME280;53689;56.878;60.672;2022-09-09T07:59:37;97896.63;;;21.13;35.58
62524;BME280;53689;56.878;60.672;2022-09-09T08:02:04;97898.44;;;21.05;36.50
62524;BME280;53689;56.878;60.672;2022-09-09T08:04:34;97898.03;;;21.09;36.37
62524;BME280;53689;56.878;60.672;2022-09-09T08:07:02;97894.97;;;21.32;35.47
62524;BME280;53689;56.878;60.672;2022-09-09T08:09:33;97895.81;;;21.26;35.36
62524;BME280;53689;56.878;60.672;2022-09-09T08:12:14;97895.59;;;21.20;35.43
62524;BME280;53689;56.878;60.672;2022-09-09T08:14:42;97895.38;;;21.15;35.61
62524;BME280;53689;56.878;60.672;2022-09-09T08:17:09;97894.59;;;21.35;35.24
62524;BME280;53689;56.878;60.672;2022-09-09T08:19:37;97887.34;;;21.49;35.24
62524;BME280;53689;56.878;60.672;2022-09-09T08:22:10;97889.19;;;21.48;35.35
62524;BME280;53689;56.878;60.672;2022-09-09T08:24:39;97875.94;;;21.40;35.46
62524;BME280;53689;56.878;60.672;2022-09-09T08:27:07;97892.13;;;21.54;34.96
62524;BME280;53689;56.878;60.672;2022-09-09T08:29:36;97889.19;;;21.48;34.93
62524;BME280;53689;56.878;60.672;2022-09-09T08:32:04;97892.50;;;21.44;35.77
62524;BME280;53689;56.878;60.672;2022-09-09T08:34:32;97887.13;;;21.51;35.36
62524;BME280;53689;56.878;60.672;2022-09-09T08:37:05;97894.38;;;21.57;35.21
62524;BME280;53689;56.878;60.672;2022-09-09T08:39:39;97892.94;;;21.47;35.39
62524;BME280;53689;56.878;60.672;2022-09-09T08:42:22;97896.03;;;21.51;35.62
62524;BME280;53689;56.878;60.672;2022-09-09T08:45:06;97896.88;;;21.45;35.77
62524;BME280;53689;56.878;60.672;2022-09-09T08:47:47;97910.25;;;21.11;36.19
62524;BME280;53689;56.878;60.672;2022-09-09T08:50:22;97904.44;;;20.52;36.79
62524;BME280;53689;56.878;60.672;2022-09-09T08:52:59;97900.59;;;20.33;37.36
62524;BME280;53689;56.878;60.672;2022-09-09T08:55:37;97912.09;;;20.20;37.63
62524;BME280;53689;56.878;60.672;2022-09-09T08:58:12;97904.69;;;20.22;37.41
62524;BME280;53689;56.878;60.672;2022-09-09T09:00:53;97905.78;;;20.34;36.84
62524;BME280;53689;56.878;60.672;2022-09-09T09:03:30;97908.91;;;20.80;36.57
62524;BME280;53689;56.878;60.672;2022-09-09T09:06:06;97909.66;;;21.09;35.37
62524;BME280;53689;56.878;60.672;2022-09-09T09:08:42;97909.06;;;21.27;35.11
62524;BME280;53689;56.878;60.672;2022-09-09T09:11:12;97906.78;;;21.31;35.06
62524;BME280;53689;56.878;60.672;2022-09-09T09:13:44;97909.66;;;21.29;35.21
62524;BME280;53689;56.878;60.672;2022-09-09T09:16:23;97908.00;;;21.21;35.09
62524;BME280;53689;56.878;60.672;2022-09-09T09:18:53;97910.69;;;21.08;35.50
62524;BME280;53689;56.878;60.672;2022-09-09T09:21:29;97912.97;;;21.11;35.75
62524;BME280;53689;56.878;60.672;2022-09-09T09:24:00;97917.78;;;21.36;34.89
62524;BME280;53689;56.878;60.672;2022-09-09T09:26:33;97906.41;;;21.41;35.17
62524;BME280;53689;56.878;60.672;2022-09-09T09:29:10;97917.59;;;21.44;34.79
62524;BME280;53689;56.878;60.672;2022-09-09T09:31:42;97916.56;;;21.52;34.83
62524;BME280;53689;56.878;60.672;2022-09-09T09:34:11;97914.69;;;21.53;34.43
62524;BME280;53689;56.878;60.672;2022-09-09T09:36:41;97918.84;;;21.48;34.80
62524;BME280;53689;56.878;60.672;2022-09-09T09:39:23;97910.97;;;21.54;34.57
62524;BME280;53689;56.878;60.672;2022-09-09T09:42:13;97909.28;;;21.53;34.93
62524;BME280;53689;56.878;60.672;2022-09-09T09:44:43;97904.31;;;21.56;34.74
62524;BME280;53689;56.878;60.672;2022-09-09T09:47:17;97907.03;;;21.63;34.41
62524;BME280;53689;56.878;60.672;2022-09-09T09:50:17;97903.50;;;21.62;34.46
62524;BME280;53689;56.878;60.672;2022-09-09T09:52:54;97910.19;;;21.73;34.46
62524;BME280;53689;56.878;60.672;2022-09-09T09:55:22;97914.91;;;21.71;34.39
62524;BME280;53689;56.878;60.672;2022-09-09T09:57:50;97909.97;;;21.68;34.44
62524;BME280;53689;56.878;60.672;2022-09-09T10:00:21;97908.09;;;21.75;34.30
62524;BME280;53689;56.878;60.672;2022-09-09T10:03:14;97906.63;;;21.80;34.19
62524;BME280;53689;56.878;60.672;2022-09-09T10:05:48;97895.44;;;21.56;34.74
62524;BME280;53689;56.878;60.672;2022-09-09T10:08:17;97896.66;;;21.67;34.66
62524;BME280;53689;56.878;60.672;2022-09-09T10:11:04;97896.25;;;21.90;34.40
62524;BME280;53689;56.878;60.672;2022-09-09T10:13:41;97897.31;;;21.82;35.57
62524;BME280;53689;56.878;60.672;2022-09-09T10:16:24;97900.22;;;21.81;34.65
62524;BME280;53689;56.878;60.672;2022-09-09T10:18:59;97890.91;;;21.76;34.58
62524;BME280;53689;56.878;60.672;2022-09-09T10:21:51;97888.59;;;21.87;34.29
62524;BME280;53689;56.878;60.672;2022-09-09T10:24:46;97889.03;;;21.70;34.94
62524;BME280;53689;56.878;60.672;2022-09-09T10:27:20;97892.56;;;21.71;34.76
62524;BME280;53689;56.878;60.672;2022-09-09T10:30:01;97891.72;;;21.70;34.75
62524;BME280;53689;56.878;60.672;2022-09-09T10:32:39;97892.94;;;21.47;36.29
62524;BME280;53689;56.878;60.672;2022-09-09T10:35:19;97904.94;;;21.38;36.70
62524;BME280;53689;56.878;60.672;2022-09-09T10:41:02;97895.41;;;21.22;36.09
62524;BME280;53689;56.878;60.672;2022-09-09T10:43:44;97894.97;;;21.39;35.68
62524;BME280;53689;56.878;60.672;2022-09-09T10:46:22;97892.94;;;21.47;35.41
62524;BME280;53689;56.878;60.672;2022-09-09T10:49:05;97886.94;;;21.45;35.17
62524;BME280;53689;56.878;60.672;2022-09-09T10:51:43;97891.69;;;21.63;35.27
62524;BME280;53689;56.878;60.672;2022-09-09T10:54:28;97893.16;;;21.59;36.69
62524;BME280;53689;56.878;60.672;2022-09-09T10:57:03;97897.06;;;21.43;36.23
62524;BME280;53689;56.878;60.672;2022-09-09T10:59:34;97892.94;;;21.47;35.44
62524;BME280;53689;56.878;60.672;2022-09-09T11:02:14;97887.69;;;21.05;36.88
62524;BME280;53689;56.878;60.672;2022-09-09T11:04:46;97893.50;;;21.09;36.06
62524;BME280;53689;56.878;60.672;2022-09-09T11:07:24;97888.19;;;20.80;36.36
62524;BME280;53689;56.878;60.672;2022-09-09T11:09:55;97897.00;;;20.54;36.68
62524;BME280;53689;56.878;60.672;2022-09-09T11:12:27;97891.22;;;20.57;36.28
62524;BME280;53689;56.878;60.672;2022-09-09T11:15:01;97893.41;;;20.82;35.74
62524;BME280;53689;56.878;60.672;2022-09-09T11:17:37;97891.91;;;20.73;35.67
62524;BME280;53689;56.878;60.672;2022-09-09T11:20:12;97886.63;;;20.93;35.18
62524;BME280;53689;56.878;60.672;2022-09-09T11:22:45;97888.34;;;21.21;34.97
62524;BME280;53689;56.878;60.672;2022-09-09T11:25:16;97898.09;;;21.29;34.48
62524;BME280;53689;56.878;60.672;2022-09-09T11:27:57;97883.59;;;21.16;34.45
62524;BME280;53689;56.878;60.672;2022-09-09T11:30:36;97880.81;;;20.89;34.98
62524;BME280;53689;56.878;60.672;2022-09-09T11:40:15;97895.66;;;20.78;35.05
62524;BME280;53689;56.878;60.672;2022-09-09T11:42:44;97903.09;;;20.76;35.43
62524;BME280;53689;56.878;60.672;2022-09-09T11:45:20;97896.50;;;20.37;35.82
62524;BME280;53689;56.878;60.672;2022-09-09T11:47:53;97906.63;;;20.35;35.99
62524;BME280;53689;56.878;60.672;2022-09-09T11:50:38;97909.06;;;20.30;36.67
62524;BME280;53689;56.878;60.672;2022-09-09T11:53:22;97903.97;;;20.42;36.02
62524;BME280;53689;56.878;60.672;2022-09-09T11:56:06;97905.84;;;20.48;35.32
62524;BME280;53689;56.878;60.672;2022-09-09T11:58:38;97907.75;;;20.19;36.05
62524;BME280;53689;56.878;60.672;2022-09-09T12:01:39;97898.34;;;20.36;36.02
62524;BME280;53689;56.878;60.672;2022-09-09T12:04:30;97904.84;;;20.49;35.49
62524;BME280;53689;56.878;60.672;2022-09-09T12:07:02;97898.59;;;20.42;35.38
62524;BME280;53689;56.878;60.672;2022-09-09T12:09:34;97901.78;;;20.59;35.13
62524;BME280;53689;56.878;60.672;2022-09-09T12:12:23;97895.44;;;20.73;34.98
62524;BME280;53689;56.878;60.672;2022-09-09T12:15:02;97897.25;;;20.59;34.78
62524;BME280;53689;56.878;60.672;2022-09-09T12:17:31;97890.81;;;20.54;34.74
62524;BME280;53689;56.878;60.672;2022-09-09T12:20:10;97896.72;;;20.84;34.29
62524;BME280;53689;56.878;60.672;2022-09-09T12:22:57;97893.06;;;20.99;34.07
62524;BME280;53689;56.878;60.672;2022-09-09T12:25:33;97896.38;;;21.01;33.96
62524;BME280;53689;56.878;60.672;2022-09-09T12:28:11;97895.50;;;20.93;34.23
62524;BME280;53689;56.878;60.672;2022-09-09T12:30:49;97890.06;;;20.73;34.07
62524;BME280;53689;56.878;60.672;2022-09-09T12:33:19;97886.41;;;20.46;34.31
62524;BME280;53689;56.878;60.672;2022-09-09T12:35:51;97886.41;;;20.46;34.47
62524;BME280;53689;56.878;60.672;2022-09-09T12:38:26;97890.91;;;20.38;34.73
62524;BME280;53689;56.878;60.672;2022-09-09T12:40:58;97895.16;;;21.17;33.87
62524;BME280;53689;56.878;60.672;2022-09-09T12:43:28;97892.72;;;21.42;33.87
62524;BME280;53689;56.878;60.672;2022-09-09T12:45:58;97893.13;;;21.53;33.69
62524;BME280;53689;56.878;60.672;2022-09-09T12:48:32;97892.72;;;21.56;32.95
62524;BME280;53689;56.878;60.672;2022-09-09T12:51:02;97891.69;;;21.63;32.99
62524;BME280;53689;56.878;60.672;2022-09-09T12:53:33;97891.25;;;21.67;33.31
62524;BME280;53689;56.878;60.672;2022-09-09T12:56:04;97883.00;;;21.68;32.58
62524;BME280;53689;56.878;60.672;2022-09-09T12:58:36;97885.50;;;21.70;32.74
62524;BME280;53689;56.878;60.672;2022-09-09T13:01:05;97882.56;;;21.65;32.67
62524;BME280;53689;56.878;60.672;2022-09-09T13:03:33;97882.59;;;21.71;32.78
62524;BME280;53689;56.878;60.672;2022-09-09T13:06:11;97884.06;;;21.74;32.28
62524;BME280;53689;56.878;60.672;2022-09-09T13:08:39;97882.19;;;21.74;32.59
62524;BME280;53689;56.878;60.672;2022-09-09T13:11:10;97894.81;;;21.74;32.39
62524;BME280;53689;56.878;60.672;2022-09-09T13:13:43;97897.75;;;21.72;32.67
62524;BME280;53689;56.878;60.672;2022-09-09T13:16:21;97891.31;;;21.73;32.44
62524;BME280;53689;56.878;60.672;2022-09-09T13:18:50;97897.94;;;21.78;32.33
62524;BME280;53689;56.878;60.672;2022-09-09T13:21:18;97888.81;;;21.79;32.35
62524;BME280;53689;56.878;60.672;2022-09-09T13:23:50;97885.09;;;21.73;32.27
62524;BME280;53689;56.878;60.672;2022-09-09T13:26:23;97889.66;;;21.72;32.32
62524;BME280;53689;56.878;60.672;2022-09-09T13:28:52;97900.63;;;21.84;31.99
62524;BME280;53689;56.878;60.672;2022-09-09T13:31:22;97888.19;;;21.76;32.15
62524;BME280;53689;56.878;60.672;2022-09-09T13:33:50;97893.59;;;21.76;32.44